Time;durP1;ratioP1;P1;durP2;ratioP2;P2;SDS_P1;SDS_P2;PMS_P1;PMS_P2;Temp;Humidity;BMP_temperature;BMP_pressure;BME280_temperature;BME280_humidity;BME280_pressure;Samples;Min_cycle;Max_cycle;Signal;HPM_P1;HPM_P2
2022/03/04 00:00:56;;;;;;;23.35;17.05;;;;;;;-144.47;100.00;61586.06;5044047;28;20117;-78
2022/03/04 00:03:22;;;;;;;21.88;15.52;;;;;;;-144.47;100.00;61586.06;5041799;28;20038;-79
2022/03/04 00:05:48;;;;;;;26.48;17.20;;;;;;;-144.47;100.00;61586.06;5043041;28;20029;-79
2022/03/04 00:08:15;;;;;;;23.23;16.30;;;;;;;-144.47;100.00;61586.06;5041603;28;20194;-79
2022/03/04 00:10:41;;;;;;;23.90;17.30;;;;;;;-144.47;100.00;61586.06;5044690;28;20116;-78
2022/03/04 00:13:06;;;;;;;24.40;16.38;;;;;;;-144.47;100.00;61586.06;5042021;28;20115;-78
2022/03/04 00:15:32;;;;;;;32.10;17.77;;;;;;;-144.47;100.00;61586.06;5043310;28;20053;-80
2022/03/04 00:17:58;;;;;;;24.55;18.48;;;;;;;-144.47;100.00;61586.06;5040390;28;20442;-79
2022/03/04 00:20:24;;;;;;;26.10;19.35;;;;;;;-144.47;100.00;61586.06;5041643;28;20548;-80
2022/03/04 00:22:49;;;;;;;27.63;18.33;;;;;;;-144.47;100.00;61586.06;5025851;28;20036;-78
2022/03/04 00:25:15;;;;;;;27.38;18.42;;;;;;;-144.47;100.00;61586.06;5041312;28;20453;-79
2022/03/04 00:27:41;;;;;;;23.83;17.85;;;;;;;-144.47;100.00;61586.06;5042502;28;20060;-79
2022/03/04 00:30:07;;;;;;;25.15;17.98;;;;;;;-144.47;100.00;61586.06;5042496;28;20437;-77
2022/03/04 00:32:35;;;;;;;27.98;17.35;;;;;;;-144.47;100.00;61586.06;5040170;28;20033;-78
2022/03/04 00:35:02;;;;;;;23.92;17.85;;;;;;;-144.47;100.00;61586.06;5042632;28;20091;-78
2022/03/04 00:37:27;;;;;;;23.90;17.23;;;;;;;-144.47;100.00;61586.06;5044159;28;20037;-78
2022/03/04 00:39:53;;;;;;;26.70;19.48;;;;;;;-144.47;100.00;61586.06;5040364;28;20064;-79
2022/03/04 00:42:18;;;;;;;24.13;18.50;;;;;;;-144.47;100.00;61586.06;5041221;28;20036;-79
2022/03/04 00:44:44;;;;;;;23.45;17.63;;;;;;;-144.47;100.00;61586.06;5042715;28;20034;-79
2022/03/04 00:47:09;;;;;;;25.23;18.05;;;;;;;-144.47;100.00;61586.06;5043464;28;20529;-79
2022/03/04 00:49:35;;;;;;;20.80;16.60;;;;;;;-144.47;100.00;61586.06;5042854;28;20037;-79
2022/03/04 00:52:01;;;;;;;24.15;17.50;;;;;;;-144.47;100.00;61586.06;5044182;28;20037;-78
2022/03/04 00:54:27;;;;;;;24.08;17.73;;;;;;;-144.47;100.00;61586.06;5040591;28;20470;-79
2022/03/04 00:56:53;;;;;;;24.35;16.80;;;;;;;-144.47;100.00;61586.06;5039334;28;20037;-79
2022/03/04 00:59:18;;;;;;;26.05;17.38;;;;;;;-144.47;100.00;61586.06;5044108;28;20032;-78
2022/03/04 01:01:44;;;;;;;24.90;18.38;;;;;;;-144.47;100.00;61586.06;5041324;28;20053;-79
2022/03/04 01:04:09;;;;;;;24.45;17.48;;;;;;;-144.47;100.00;61586.06;5041387;28;20037;-78
2022/03/04 01:06:35;;;;;;;23.95;17.27;;;;;;;-144.47;100.00;61586.06;5043803;28;20061;-78
2022/03/04 01:09:01;;;;;;;23.42;17.40;;;;;;;-144.47;100.00;61586.06;5042693;28;20485;-79
2022/03/04 01:11:26;;;;;;;22.80;17.13;;;;;;;-144.47;100.00;61586.06;5039976;28;20037;-78
2022/03/04 01:13:52;;;;;;;22.60;18.40;;;;;;;-144.47;100.00;61586.06;5039957;28;20057;-79
2022/03/04 01:16:18;;;;;;;27.75;18.40;;;;;;;-144.47;100.00;61586.06;5041824;28;20029;-79
2022/03/04 01:18:43;;;;;;;25.60;18.08;;;;;;;-144.47;100.00;61586.06;5055993;28;20070;-79
2022/03/04 01:21:09;;;;;;;24.48;18.80;;;;;;;-144.47;100.00;61586.06;5039995;28;20108;-79
2022/03/04 01:23:34;;;;;;;30.65;19.52;;;;;;;-144.47;100.00;61586.06;5041113;28;20037;-78
2022/03/04 01:26:00;;;;;;;28.60;18.90;;;;;;;-144.47;100.00;61586.06;5042915;28;20032;-78
2022/03/04 01:28:26;;;;;;;30.65;19.77;;;;;;;-144.47;100.00;61586.06;5040553;28;20084;-79
2022/03/04 01:30:51;;;;;;;30.80;19.23;;;;;;;-144.47;100.00;61586.06;5043251;28;20032;-78
2022/03/04 01:33:17;;;;;;;28.65;19.20;;;;;;;-144.47;100.00;61586.06;5040803;28;20052;-78
2022/03/04 01:35:42;;;;;;;26.13;18.00;;;;;;;-144.47;100.00;61586.06;5042716;28;20045;-78
2022/03/04 01:38:08;;;;;;;28.80;19.17;;;;;;;-144.47;100.00;61586.06;5041238;28;20057;-78
2022/03/04 01:40:34;;;;;;;24.20;17.80;;;;;;;-144.47;100.00;61586.06;5041124;28;20029;-78
2022/03/04 01:42:59;;;;;;;25.63;17.85;;;;;;;-144.47;100.00;61586.06;5043382;28;20061;-77
2022/03/04 01:45:25;;;;;;;23.92;17.73;;;;;;;-144.47;100.00;61586.06;5038922;28;20123;-78
2022/03/04 01:47:51;;;;;;;28.63;18.73;;;;;;;-144.47;100.00;61586.06;5039943;28;20036;-79
2022/03/04 01:50:18;;;;;;;25.38;18.13;;;;;;;-144.47;100.00;61586.06;5042307;28;20044;-79
2022/03/04 01:52:44;;;;;;;28.55;19.10;;;;;;;-144.47;100.00;61586.06;5040071;28;20095;-79
2022/03/04 01:55:09;;;;;;;26.67;18.00;;;;;;;-144.47;100.00;61586.06;5038209;28;20032;-78
2022/03/04 01:57:36;;;;;;;29.30;18.75;;;;;;;-144.47;100.00;61586.06;5039761;28;20049;-79
2022/03/04 02:00:05;;;;;;;23.17;18.00;;;;;;;-144.47;100.00;61586.06;5039929;28;20034;-78
2022/03/04 02:02:37;;;;;;;29.35;18.80;;;;;;;-144.47;100.00;61586.06;5043191;28;20098;-78
2022/03/04 02:05:03;;;;;;;24.60;18.23;;;;;;;-144.47;100.00;61586.06;5043312;28;20045;-78
2022/03/04 02:07:29;;;;;;;24.13;17.83;;;;;;;-144.47;100.00;61586.06;5052646;28;20033;-78
2022/03/04 02:09:55;;;;;;;25.27;18.38;;;;;;;-144.47;100.00;61586.06;5055616;28;20058;-78
2022/03/04 02:12:20;;;;;;;31.15;20.00;;;;;;;-144.47;100.00;61586.06;5059315;28;20020;-79
2022/03/04 02:14:46;;;;;;;29.60;19.13;;;;;;;-144.47;100.00;61586.06;5073678;28;20118;-78
2022/03/04 02:17:11;;;;;;;27.60;19.75;;;;;;;-144.47;100.00;61586.06;5047912;28;20037;-78
2022/03/04 02:19:37;;;;;;;34.10;19.65;;;;;;;-144.47;100.00;61586.06;5044435;28;20067;-79
2022/03/04 02:22:04;;;;;;;29.58;20.42;;;;;;;-144.47;100.00;61586.06;5041365;28;20041;-77
2022/03/04 02:24:31;;;;;;;27.55;19.55;;;;;;;-144.47;100.00;61586.06;5059521;28;20056;-79
2022/03/04 02:26:59;;;;;;;30.38;21.15;;;;;;;-144.47;100.00;61586.06;5037304;28;20034;-78
2022/03/04 02:29:25;;;;;;;34.72;21.13;;;;;;;-144.47;100.00;61586.06;5042612;28;20079;-78
2022/03/04 02:31:52;;;;;;;29.52;20.38;;;;;;;-144.47;100.00;61586.06;5055972;28;20033;-79
2022/03/04 02:34:17;;;;;;;29.85;20.40;;;;;;;-144.47;100.00;61586.06;5062224;28;20036;-78
2022/03/04 02:36:43;;;;;;;28.85;19.63;;;;;;;-144.47;100.00;61586.06;5061109;28;20029;-79
2022/03/04 02:39:10;;;;;;;32.60;20.88;;;;;;;-144.47;100.00;61586.06;5057082;28;20041;-79
2022/03/04 02:41:36;;;;;;;30.55;20.67;;;;;;;-144.47;100.00;61586.06;5044039;28;20132;-76
2022/03/04 02:44:10;;;;;;;27.30;20.23;;;;;;;-144.47;100.00;61586.06;5040317;28;20033;-78
2022/03/04 02:46:37;;;;;;;31.70;20.63;;;;;;;-144.47;100.00;61586.06;5042557;28;20033;-77
2022/03/04 02:49:04;;;;;;;28.67;19.00;;;;;;;-144.47;100.00;61586.06;5038931;28;20033;-77
2022/03/04 02:51:30;;;;;;;29.48;20.65;;;;;;;-144.47;100.00;61586.06;5042255;28;20030;-78
2022/03/04 02:53:55;;;;;;;31.77;20.40;;;;;;;-144.47;100.00;61586.06;5038746;28;20353;-78
2022/03/04 02:56:21;;;;;;;29.60;20.58;;;;;;;-144.47;100.00;61586.06;5041763;28;20033;-78
2022/03/04 02:58:46;;;;;;;28.67;20.30;;;;;;;-144.47;100.00;61586.06;5039312;28;20029;-80
2022/03/04 03:01:12;;;;;;;27.77;20.27;;;;;;;-144.47;100.00;61586.06;5040052;28;20038;-79
2022/03/04 03:03:38;;;;;;;32.45;20.73;;;;;;;-144.47;100.00;61586.06;5040471;28;20040;-78
2022/03/04 03:06:05;;;;;;;31.83;20.88;;;;;;;-144.47;100.00;61586.06;5039156;28;20034;-77
2022/03/04 03:08:31;;;;;;;28.48;20.48;;;;;;;-144.47;100.00;61586.06;5042523;28;20041;-78
2022/03/04 03:10:57;;;;;;;31.15;20.90;;;;;;;-144.47;100.00;61586.06;5039708;28;20037;-78
2022/03/04 03:13:22;;;;;;;32.90;21.88;;;;;;;-144.47;100.00;61586.06;5043699;28;20131;-78
2022/03/04 03:15:49;;;;;;;34.95;23.08;;;;;;;-144.47;100.00;61586.06;5042794;28;20384;-78
2022/03/04 03:18:15;;;;;;;32.60;21.75;;;;;;;-144.47;100.00;61586.06;5034464;28;20370;-78
2022/03/04 03:20:41;;;;;;;38.15;22.00;;;;;;;-144.47;100.00;61586.06;5040424;28;20045;-78
2022/03/04 03:23:06;;;;;;;32.90;22.48;;;;;;;-144.47;100.00;61586.06;5040862;28;20422;-79
2022/03/04 03:25:33;;;;;;;32.92;22.17;;;;;;;-144.47;100.00;61586.06;5038793;28;20035;-80
2022/03/04 03:28:00;;;;;;;31.80;21.02;;;;;;;-144.47;100.00;61586.06;5038330;28;20033;-78
2022/03/04 03:30:26;;;;;;;33.60;21.63;;;;;;;-144.47;100.00;61586.06;5044340;28;20047;-77
2022/03/04 03:32:52;;;;;;;39.00;22.83;;;;;;;-144.47;100.00;61586.06;5042336;28;20089;-78
2022/03/04 03:35:20;;;;;;;30.23;21.13;;;;;;;-144.47;100.00;61586.06;5044601;28;20033;-78
2022/03/04 03:37:45;;;;;;;32.58;22.17;;;;;;;-144.47;100.00;61586.06;5046427;28;20037;-78
2022/03/04 03:40:12;;;;;;;30.98;21.55;;;;;;;-144.47;100.00;61586.06;5045027;28;20048;-78
2022/03/04 03:42:42;;;;;;;35.55;21.50;;;;;;;-144.47;100.00;61586.06;5048550;28;20033;-79
2022/03/04 03:45:10;;;;;;;27.95;20.92;;;;;;;-144.47;100.00;61586.06;5041712;28;20500;-78
2022/03/04 03:47:38;;;;;;;33.60;22.33;;;;;;;-144.47;100.00;61586.06;5046554;28;20076;-79
2022/03/04 03:50:05;;;;;;;35.60;22.35;;;;;;;-144.47;100.00;61586.06;5042480;28;20132;-78
2022/03/04 03:52:31;;;;;;;33.58;21.77;;;;;;;-144.47;100.00;61586.06;5040538;28;20028;-77
2022/03/04 03:54:57;;;;;;;31.63;21.55;;;;;;;-144.47;100.00;61586.06;5041846;28;20473;-78
2022/03/04 03:57:22;;;;;;;34.25;21.88;;;;;;;-144.47;100.00;61586.06;5044652;28;20040;-79
2022/03/04 03:59:48;;;;;;;29.08;20.63;;;;;;;-144.47;100.00;61586.06;5047424;28;20029;-79
2022/03/04 04:02:14;;;;;;;31.38;21.08;;;;;;;-144.47;100.00;61586.06;5045328;28;20036;-78
2022/03/04 04:04:41;;;;;;;33.17;21.58;;;;;;;-144.47;100.00;61586.06;5046132;28;20025;-78
2022/03/04 04:07:11;;;;;;;30.20;22.15;;;;;;;-144.47;100.00;61586.06;5047024;28;20032;-79
2022/03/04 04:09:38;;;;;;;33.58;22.40;;;;;;;-144.47;100.00;61586.06;5042954;28;20120;-78
2022/03/04 04:12:04;;;;;;;30.02;21.55;;;;;;;-144.47;100.00;61586.06;5046596;28;20037;-79
2022/03/04 04:14:30;;;;;;;32.63;21.77;;;;;;;-144.47;100.00;61586.06;5041034;28;20030;-78
2022/03/04 04:16:56;;;;;;;31.30;21.15;;;;;;;-144.47;100.00;61586.06;5042717;28;20128;-77
2022/03/04 04:19:23;;;;;;;29.25;20.45;;;;;;;-144.47;100.00;61586.06;5044076;28;20045;-79
2022/03/04 04:21:50;;;;;;;29.63;21.13;;;;;;;-144.47;100.00;61586.06;5041011;28;20068;-79
2022/03/04 04:24:16;;;;;;;29.05;21.48;;;;;;;-144.47;100.00;61586.06;5043064;28;20143;-79
2022/03/04 04:26:42;;;;;;;29.38;20.00;;;;;;;-144.47;100.00;61586.06;5042241;28;20477;-78
2022/03/04 04:29:08;;;;;;;30.42;19.65;;;;;;;-144.47;100.00;61586.06;5042101;28;20033;-80
2022/03/04 04:31:33;;;;;;;32.03;20.13;;;;;;;-144.47;100.00;61586.06;5044384;28;20059;-80
2022/03/04 04:34:00;;;;;;;28.85;20.60;;;;;;;-144.47;100.00;61586.06;5044461;28;20136;-79
2022/03/04 04:36:26;;;;;;;25.58;19.05;;;;;;;-144.47;100.00;61586.06;5040399;28;20037;-79
2022/03/04 04:38:51;;;;;;;28.27;19.45;;;;;;;-144.47;100.00;61586.06;5042685;28;20094;-79
2022/03/04 04:41:17;;;;;;;29.27;19.05;;;;;;;-144.47;100.00;61586.06;5042483;28;20036;-78
2022/03/04 04:43:42;;;;;;;33.55;19.80;;;;;;;-144.47;100.00;61586.06;5041499;28;20063;-79
2022/03/04 04:46:08;;;;;;;28.98;19.33;;;;;;;-144.47;100.00;61586.06;5041295;28;20080;-79
2022/03/04 04:48:33;;;;;;;27.00;18.45;;;;;;;-144.47;100.00;61586.06;5042705;28;20033;-79
2022/03/04 04:50:59;;;;;;;30.75;20.02;;;;;;;-144.47;100.00;61586.06;5039742;28;20481;-78
2022/03/04 04:53:29;;;;;;;26.05;18.20;;;;;;;-144.47;100.00;61586.06;5043572;28;20089;-78
2022/03/04 04:55:54;;;;;;;25.95;19.08;;;;;;;-144.47;100.00;61586.06;5039417;28;20120;-78
2022/03/04 04:58:20;;;;;;;26.95;19.33;;;;;;;-144.47;100.00;61586.06;5043512;28;20029;-78
2022/03/04 05:00:50;;;;;;;23.42;17.85;;;;;;;-144.47;100.00;61586.06;5043892;28;20047;-77
2022/03/04 05:03:17;;;;;;;27.27;19.67;;;;;;;-144.47;100.00;61586.06;5040818;28;20037;-78
2022/03/04 05:05:42;;;;;;;32.67;20.65;;;;;;;-144.47;100.00;61586.06;5042242;28;20033;-76
2022/03/04 05:08:08;;;;;;;28.02;19.50;;;;;;;-144.47;100.00;61586.06;5041783;28;20041;-78
2022/03/04 05:10:34;;;;;;;29.80;19.88;;;;;;;-144.47;100.00;61586.06;5040691;28;20071;-77
2022/03/04 05:12:59;;;;;;;34.38;20.05;;;;;;;-144.47;100.00;61586.06;5040802;28;20029;-77
2022/03/04 05:15:25;;;;;;;29.75;20.10;;;;;;;-144.47;100.00;61586.06;5043530;28;20033;-77
2022/03/04 05:17:51;;;;;;;31.20;20.20;;;;;;;-144.47;100.00;61586.06;5039935;28;20038;-79
2022/03/04 05:20:17;;;;;;;25.65;19.45;;;;;;;-144.47;100.00;61586.06;5039597;28;20032;-78
2022/03/04 05:22:43;;;;;;;28.92;19.75;;;;;;;-144.47;100.00;61586.06;5041984;28;20505;-78
2022/03/04 05:25:09;;;;;;;27.85;19.95;;;;;;;-144.47;100.00;61586.06;5041530;28;20912;-78
2022/03/04 05:27:35;;;;;;;27.50;19.25;;;;;;;-144.47;100.00;61586.06;5041610;28;20164;-78
2022/03/04 05:30:00;;;;;;;25.88;18.58;;;;;;;-144.47;100.00;61586.06;5042566;28;20106;-79
2022/03/04 05:32:26;;;;;;;31.75;19.05;;;;;;;-144.47;100.00;61586.06;5039789;28;20071;-79
2022/03/04 05:34:52;;;;;;;31.25;21.42;;;;;;;-144.47;100.00;61586.06;5043160;28;20059;-79
2022/03/04 05:37:17;;;;;;;32.40;19.52;;;;;;;-144.47;100.00;61586.06;5040332;28;20116;-79
2022/03/04 05:39:43;;;;;;;27.83;18.65;;;;;;;-144.47;100.00;61586.06;5042376;28;20354;-78
2022/03/04 05:42:08;;;;;;;28.35;20.13;;;;;;;-144.47;100.00;61586.06;5044719;28;20651;-79
2022/03/04 05:44:34;;;;;;;28.23;19.83;;;;;;;-144.47;100.00;61586.06;5041313;28;20439;-78
2022/03/04 05:46:59;;;;;;;29.85;19.70;;;;;;;-144.47;100.00;61586.06;5039771;28;20025;-79
2022/03/04 05:49:25;;;;;;;30.25;21.15;;;;;;;-144.47;100.00;61586.06;5043525;28;20054;-77
2022/03/04 05:51:50;;;;;;;29.15;21.60;;;;;;;-144.47;100.00;61586.06;5040330;28;20048;-78
2022/03/04 05:54:16;;;;;;;31.30;20.23;;;;;;;-144.47;100.00;61586.06;5042049;28;20063;-77
2022/03/04 05:56:42;;;;;;;31.02;20.20;;;;;;;-144.47;100.00;61586.06;5041292;28;20364;-76
2022/03/04 05:59:08;;;;;;;30.10;20.02;;;;;;;-144.47;100.00;61586.06;5039827;28;20477;-77
2022/03/04 06:01:33;;;;;;;28.73;19.88;;;;;;;-144.47;100.00;61586.06;5040488;28;20131;-77
2022/03/04 06:03:59;;;;;;;34.33;21.45;;;;;;;-144.47;100.00;61586.06;5042033;28;20350;-76
2022/03/04 06:06:25;;;;;;;29.92;19.15;;;;;;;-144.47;100.00;61586.06;5042060;28;20056;-76
2022/03/04 06:08:51;;;;;;;29.25;19.25;;;;;;;-144.47;100.00;61586.06;5040107;28;20039;-76
2022/03/04 06:11:18;;;;;;;30.88;20.70;;;;;;;-144.47;100.00;61586.06;5042516;28;20084;-78
2022/03/04 06:13:45;;;;;;;31.83;21.25;;;;;;;-144.47;100.00;61586.06;5057353;28;20067;-77
2022/03/04 06:16:10;;;;;;;31.95;20.15;;;;;;;-144.47;100.00;61586.06;5048936;28;20029;-77
2022/03/04 06:18:36;;;;;;;29.58;19.83;;;;;;;-144.47;100.00;61586.06;5056323;28;20017;-76
2022/03/04 06:21:01;;;;;;;38.42;20.88;;;;;;;-144.47;100.00;61586.06;5050239;28;20053;-79
2022/03/04 06:23:27;;;;;;;27.35;19.25;;;;;;;-144.47;100.00;61586.06;4705597;28;10000254;-77
2022/03/04 06:25:55;;;;;;;28.00;18.25;;;;;;;-144.47;100.00;61586.06;5044606;28;20481;-78
2022/03/04 06:28:21;;;;;;;28.33;19.65;;;;;;;-144.47;100.00;61586.06;5035044;28;20092;-78
2022/03/04 06:30:47;;;;;;;28.60;19.38;;;;;;;-144.47;100.00;61586.06;5040741;28;20088;-78
2022/03/04 06:33:30;;;;;;;28.08;19.58;;;;;;;-144.47;100.00;61586.06;5036044;28;20440;-78
2022/03/04 06:35:59;;;;;;;35.40;21.05;;;;;;;-144.47;100.00;61586.06;5036507;28;20406;-77
2022/03/04 06:38:25;;;;;;;26.35;19.55;;;;;;;-144.47;100.00;61586.06;5036366;28;20053;-78
2022/03/04 06:40:51;;;;;;;28.38;20.08;;;;;;;-144.47;100.00;61586.06;5036257;28;20108;-78
2022/03/04 06:43:17;;;;;;;29.27;19.75;;;;;;;-144.47;100.00;61586.06;5038641;28;20037;-79
2022/03/04 06:45:44;;;;;;;36.28;21.63;;;;;;;-144.47;100.00;61586.06;5036806;28;20038;-78
2022/03/04 06:48:11;;;;;;;30.70;20.58;;;;;;;-144.47;100.00;61586.06;5038246;28;20120;-75
2022/03/04 06:50:37;;;;;;;33.80;22.27;;;;;;;-144.47;100.00;61586.06;5040720;28;20132;-78
2022/03/04 06:53:04;;;;;;;30.23;22.05;;;;;;;-144.47;100.00;61586.06;4689142;28;10000021;-79
2022/03/04 06:55:30;;;;;;;35.30;22.15;;;;;;;-144.47;100.00;61586.06;5040209;28;20091;-80
2022/03/04 06:57:56;;;;;;;32.58;23.90;;;;;;;-144.47;100.00;61586.06;5037793;28;20535;-77
2022/03/04 07:00:22;;;;;;;35.65;22.25;;;;;;;-144.47;100.00;61586.06;5041330;28;20025;-76
2022/03/04 07:02:48;;;;;;;36.20;25.30;;;;;;;-144.47;100.00;61586.06;5040892;28;20040;-78
2022/03/04 07:05:14;;;;;;;39.33;23.50;;;;;;;-144.47;100.00;61586.06;5035170;28;20496;-77
2022/03/04 07:07:41;;;;;;;36.10;24.75;;;;;;;-144.47;100.00;61586.06;5040435;28;20057;-78
2022/03/04 07:10:07;;;;;;;37.38;24.00;;;;;;;-144.47;100.00;61586.06;5041614;28;20024;-77
2022/03/04 07:12:34;;;;;;;35.00;22.75;;;;;;;-144.47;100.00;61586.06;5039012;28;20040;-78
2022/03/04 07:14:59;;;;;;;36.30;23.95;;;;;;;-144.47;100.00;61586.06;5042992;28;20033;-77
2022/03/04 07:17:25;;;;;;;39.83;25.27;;;;;;;-144.47;100.00;61586.06;5043665;28;20119;-78
2022/03/04 07:19:50;;;;;;;41.95;25.33;;;;;;;-144.47;100.00;61586.06;5048956;28;20036;-78
2022/03/04 07:22:16;;;;;;;33.55;23.05;;;;;;;-144.47;100.00;61586.06;5046337;28;20373;-79
2022/03/04 07:24:42;;;;;;;40.05;23.65;;;;;;;-144.47;100.00;61586.06;5043328;28;20035;-79
2022/03/04 07:27:08;;;;;;;38.22;24.23;;;;;;;-144.47;100.00;61586.06;5043309;28;20449;-77
2022/03/04 07:29:33;;;;;;;37.90;24.55;;;;;;;-144.47;100.00;61586.06;5042772;28;20044;-78
2022/03/04 07:31:59;;;;;;;37.90;24.40;;;;;;;-144.47;100.00;61586.06;5041332;28;20442;-78
2022/03/04 07:34:25;;;;;;;35.03;23.23;;;;;;;-144.47;100.00;61586.06;5044928;28;20032;-78
2022/03/04 07:36:52;;;;;;;35.80;24.02;;;;;;;-144.47;100.00;61586.06;5041590;28;20025;-79
2022/03/04 07:39:17;;;;;;;35.58;24.70;;;;;;;-144.47;100.00;61586.06;5043241;28;20518;-78
2022/03/04 07:41:47;;;;;;;37.92;24.88;;;;;;;-144.47;100.00;61586.06;5044556;28;20460;-78
2022/03/04 07:44:13;;;;;;;41.50;26.08;;;;;;;-144.47;100.00;61586.06;5043528;28;20063;-78
2022/03/04 07:46:38;;;;;;;43.20;26.65;;;;;;;-144.47;100.00;61586.06;5043029;28;20165;-78
2022/03/04 07:49:04;;;;;;;41.25;26.60;;;;;;;-144.47;100.00;61586.06;5043164;28;20579;-78
2022/03/04 07:51:30;;;;;;;44.72;25.05;;;;;;;-144.47;100.00;61586.06;5041264;28;20503;-77
2022/03/04 07:53:56;;;;;;;44.08;26.88;;;;;;;-144.47;100.00;61586.06;5043170;28;20116;-78
2022/03/04 07:56:22;;;;;;;40.88;26.13;;;;;;;-144.47;100.00;61586.06;5041966;28;20032;-79
2022/03/04 07:58:47;;;;;;;42.90;27.98;;;;;;;-144.47;100.00;61586.06;5044032;28;20025;-79
2022/03/04 08:01:13;;;;;;;44.83;27.70;;;;;;;-144.47;100.00;61586.06;5042189;28;20037;-78
2022/03/04 08:03:38;;;;;;;42.90;27.75;;;;;;;-144.47;100.00;61586.06;5042441;28;20026;-77
2022/03/04 08:06:04;;;;;;;44.08;27.55;;;;;;;-144.47;100.00;61586.06;5043186;28;20112;-79
2022/03/04 08:08:30;;;;;;;43.33;27.10;;;;;;;-144.47;100.00;61586.06;5036243;28;20168;-75
2022/03/04 08:10:55;;;;;;;41.67;28.33;;;;;;;-144.47;100.00;61586.06;5039208;28;20409;-74
2022/03/04 08:13:21;;;;;;;43.13;26.65;;;;;;;-144.47;100.00;61586.06;5041897;28;20177;-73
2022/03/04 08:15:47;;;;;;;44.92;26.88;;;;;;;-144.47;100.00;61586.06;5042200;28;20030;-73
2022/03/04 08:18:13;;;;;;;40.10;26.20;;;;;;;-144.47;100.00;61586.06;5040124;28;20041;-74
2022/03/04 08:20:39;;;;;;;44.85;27.05;;;;;;;-144.47;100.00;61586.06;5038979;28;20025;-75
2022/03/04 08:23:05;;;;;;;41.40;26.55;;;;;;;-144.47;100.00;61586.06;5041278;28;20037;-77
2022/03/04 08:25:30;;;;;;;41.92;25.98;;;;;;;-144.47;100.00;61586.06;5039732;28;20167;-78
2022/03/04 08:27:56;;;;;;;42.10;27.15;;;;;;;-144.47;100.00;61586.06;5041095;28;20811;-77
2022/03/04 08:30:21;;;;;;;42.65;28.00;;;;;;;-144.47;100.00;61586.06;5043571;28;20028;-76
2022/03/04 08:32:47;;;;;;;37.95;26.38;;;;;;;-144.47;100.00;61586.06;5043131;28;20175;-75
2022/03/04 08:35:13;;;;;;;39.03;26.75;;;;;;;-144.47;100.00;61586.06;5038796;28;20029;-72
2022/03/04 08:37:38;;;;;;;40.22;27.17;;;;;;;-144.47;100.00;61586.06;5043201;28;20052;-73
2022/03/04 08:40:08;;;;;;;41.13;26.92;;;;;;;-144.47;100.00;61586.06;5040325;28;20476;-73
2022/03/04 08:42:33;;;;;;;41.17;27.88;;;;;;;-144.47;100.00;61586.06;5042821;28;20112;-72
2022/03/04 08:44:59;;;;;;;44.35;27.27;;;;;;;-144.47;100.00;61586.06;5036298;28;20492;-73
2022/03/04 08:47:24;;;;;;;44.13;26.48;;;;;;;-144.47;100.00;61586.06;5042575;28;20453;-74
2022/03/04 08:49:51;;;;;;;42.95;26.85;;;;;;;-144.47;100.00;61586.06;5040560;28;20030;-74
2022/03/04 08:52:16;;;;;;;39.15;26.30;;;;;;;-144.47;100.00;61586.06;5042890;28;20072;-72
2022/03/04 08:54:42;;;;;;;44.03;27.48;;;;;;;-144.47;100.00;61586.06;5043153;28;20029;-74
2022/03/04 08:57:07;;;;;;;43.88;26.33;;;;;;;-144.47;100.00;61586.06;5038713;28;20478;-74
2022/03/04 08:59:33;;;;;;;44.90;25.45;;;;;;;-144.47;100.00;61586.06;5043718;28;20037;-73
2022/03/04 09:01:59;;;;;;;38.40;26.52;;;;;;;-144.47;100.00;61586.06;5039679;28;20041;-74
2022/03/04 09:04:25;;;;;;;44.42;28.10;;;;;;;-144.47;100.00;61586.06;5038246;28;20544;-74
2022/03/04 09:06:50;;;;;;;40.35;26.20;;;;;;;-144.47;100.00;61586.06;5041597;28;20358;-73
2022/03/04 09:09:16;;;;;;;39.58;26.83;;;;;;;-144.47;100.00;61586.06;5039216;28;20044;-73
2022/03/04 09:11:42;;;;;;;40.92;27.15;;;;;;;-144.47;100.00;61586.06;5037898;28;20056;-74
2022/03/04 09:14:08;;;;;;;36.03;25.75;;;;;;;-144.47;100.00;61586.06;5038948;28;20025;-72
2022/03/04 09:16:34;;;;;;;40.42;26.25;;;;;;;-144.47;100.00;61586.06;5041763;28;20048;-74
2022/03/04 09:18:59;;;;;;;40.22;27.73;;;;;;;-144.47;100.00;61586.06;5045444;28;20429;-74
2022/03/04 09:21:26;;;;;;;41.85;28.25;;;;;;;-144.47;100.00;61586.06;5039691;28;20103;-74
2022/03/04 09:23:51;;;;;;;42.78;27.70;;;;;;;-144.47;100.00;61586.06;5038090;28;20146;-73
2022/03/04 09:26:17;;;;;;;39.65;27.65;;;;;;;-144.47;100.00;61586.06;5039697;28;20021;-74
2022/03/04 09:28:43;;;;;;;40.30;26.52;;;;;;;-144.47;100.00;61586.06;5037939;28;20111;-74
2022/03/04 09:31:09;;;;;;;42.95;28.45;;;;;;;-144.47;100.00;61586.06;5039935;28;20035;-74
2022/03/04 09:33:35;;;;;;;46.15;28.98;;;;;;;-144.47;100.00;61586.06;5021478;28;20124;-74
2022/03/04 09:36:00;;;;;;;39.40;27.60;;;;;;;-144.47;100.00;61586.06;5041158;28;20210;-74
2022/03/04 09:38:27;;;;;;;42.25;28.30;;;;;;;-144.47;100.00;61586.06;5034873;28;20048;-74
2022/03/04 09:40:52;;;;;;;40.75;28.02;;;;;;;-144.47;100.00;61586.06;5039529;28;20029;-74
2022/03/04 09:43:18;;;;;;;45.08;28.88;;;;;;;-144.47;100.00;61586.06;5040753;28;20152;-75
2022/03/04 09:45:49;;;;;;;43.25;28.92;;;;;;;-144.47;100.00;61586.06;5045063;28;20036;-75
2022/03/04 09:48:16;;;;;;;44.15;28.88;;;;;;;-144.47;100.00;61586.06;5040029;28;20043;-74
2022/03/04 09:50:45;;;;;;;45.63;29.40;;;;;;;-144.47;100.00;61586.06;5041622;28;20032;-75
2022/03/04 09:53:11;;;;;;;42.53;28.90;;;;;;;-144.47;100.00;61586.06;5042213;28;20112;-74
2022/03/04 09:55:41;;;;;;;45.65;29.63;;;;;;;-144.47;100.00;61586.06;5041828;28;20132;-75
2022/03/04 09:58:10;;;;;;;43.63;30.65;;;;;;;-144.47;100.00;61586.06;5044666;28;20032;-74
2022/03/04 10:00:36;;;;;;;45.50;29.55;;;;;;;-144.47;100.00;61586.06;5038082;28;20433;-73
2022/03/04 10:03:02;;;;;;;40.97;29.45;;;;;;;-144.47;100.00;61586.06;5041733;28;20108;-74
2022/03/04 10:05:27;;;;;;;45.28;30.95;;;;;;;-144.47;100.00;61586.06;5038564;28;20033;-74
2022/03/04 10:07:53;;;;;;;42.80;29.55;;;;;;;-144.47;100.00;61586.06;5042038;28;20045;-74
2022/03/04 10:10:22;;;;;;;46.83;31.13;;;;;;;-144.47;100.00;61586.06;5042064;28;20486;-73
2022/03/04 10:12:55;;;;;;;45.65;30.75;;;;;;;-144.47;100.00;61586.06;5040848;28;20041;-73
2022/03/04 10:15:21;;;;;;;46.22;31.48;;;;;;;-144.47;100.00;61586.06;5039285;28;20054;-73
2022/03/04 10:18:02;;;;;;;47.03;30.65;;;;;;;-144.47;100.00;61586.06;5043177;28;20434;-74
2022/03/04 10:20:37;;;;;;;48.78;31.67;;;;;;;-144.47;100.00;61586.06;5040360;28;20025;-73
2022/03/04 10:23:11;;;;;;;52.22;34.20;;;;;;;-144.47;100.00;61586.06;5040188;28;20087;-74
2022/03/04 10:25:37;;;;;;;49.33;33.08;;;;;;;-144.47;100.00;61586.06;5054353;28;20442;-73
2022/03/04 10:28:10;;;;;;;51.58;34.67;;;;;;;-144.47;100.00;61586.06;5043069;28;20079;-72
2022/03/04 10:30:36;;;;;;;56.25;36.05;;;;;;;-144.47;100.00;61586.06;5040848;28;20061;-75
2022/03/04 10:33:22;;;;;;;55.85;34.88;;;;;;;-144.47;100.00;61586.06;5038731;28;20037;-75
2022/03/04 10:36:08;;;;;;;55.10;35.35;;;;;;;-144.47;100.00;61586.06;5042243;28;20037;-76
2022/03/04 10:38:34;;;;;;;53.42;35.17;;;;;;;-144.47;100.00;61586.06;5040071;28;20098;-75
2022/03/04 10:41:00;;;;;;;56.63;35.22;;;;;;;-144.47;100.00;61586.06;5058915;28;20028;-79
2022/03/04 10:43:35;;;;;;;57.47;35.42;;;;;;;-144.47;100.00;61586.06;5043219;28;20477;-77
2022/03/04 10:46:05;;;;;;;52.45;34.92;;;;;;;-144.47;100.00;61586.06;5037391;28;20079;-77
2022/03/04 10:48:31;;;;;;;58.42;35.67;;;;;;;-144.47;100.00;61586.06;5038381;28;20537;-79
2022/03/04 10:50:59;;;;;;;55.33;35.92;;;;;;;-144.47;100.00;61586.06;5038183;28;20033;-77